sensor_id;sensor_type;location;lat;lon;timestamp;temperature;humidity
2463;DHT22;1243;54.298;10.172;2024-01-15T00:00:09;2.50;1.00
2463;DHT22;1243;54.298;10.172;2024-01-15T00:02:35;2.60;1.00
2463;DHT22;1243;54.298;10.172;2024-01-15T00:05:01;2.60;1.00
2463;DHT22;1243;54.298;10.172;2024-01-15T00:07:26;2.70;1.00
2463;DHT22;1243;54.298;10.172;2024-01-15T00:09:52;2.70;1.00
2463;DHT22;1243;54.298;10.172;2024-01-15T00:12:18;2.70;1.00
2463;DHT22;1243;54.298;10.172;2024-01-15T00:14:43;2.60;1.00
2463;DHT22;1243;54.298;10.172;2024-01-15T00:17:09;2.60;1.00
2463;DHT22;1243;54.298;10.172;2024-01-15T00:19:35;2.50;1.00
2463;DHT22;1243;54.298;10.172;2024-01-15T00:22:00;2.30;1.00
2463;DHT22;1243;54.298;10.172;2024-01-15T00:24:26;2.10;1.00
2463;DHT22;1243;54.298;10.172;2024-01-15T00:26:52;1.90;1.00
2463;DHT22;1243;54.298;10.172;2024-01-15T00:29:19;1.90;1.00
2463;DHT22;1243;54.298;10.172;2024-01-15T00:31:44;1.90;1.00
2463;DHT22;1243;54.298;10.172;2024-01-15T00:34:10;1.90;1.00
2463;DHT22;1243;54.298;10.172;2024-01-15T00:36:36;1.90;1.00
2463;DHT22;1243;54.298;10.172;2024-01-15T00:39:01;1.90;1.00
2463;DHT22;1243;54.298;10.172;2024-01-15T00:41:27;2.00;1.00
2463;DHT22;1243;54.298;10.172;2024-01-15T00:43:53;2.00;1.00
2463;DHT22;1243;54.298;10.172;2024-01-15T00:46:19;2.10;4.20
2463;DHT22;1243;54.298;10.172;2024-01-15T00:48:44;2.20;21.50
2463;DHT22;1243;54.298;10.172;2024-01-15T00:51:10;2.20;36.30
2463;DHT22;1243;54.298;10.172;2024-01-15T00:53:36;2.30;54.00
2463;DHT22;1243;54.298;10.172;2024-01-15T00:56:02;2.30;63.60
2463;DHT22;1243;54.298;10.172;2024-01-15T00:58:28;2.30;75.30
2463;DHT22;1243;54.298;10.172;2024-01-15T01:00:54;2.30;75.40
2463;DHT22;1243;54.298;10.172;2024-01-15T01:03:20;2.30;75.40
2463;DHT22;1243;54.298;10.172;2024-01-15T01:05:48;2.30;83.40
2463;DHT22;1243;54.298;10.172;2024-01-15T01:08:15;2.40;92.20
2463;DHT22;1243;54.298;10.172;2024-01-15T01:10:41;2.40;94.30
2463;DHT22;1243;54.298;10.172;2024-01-15T01:13:08;2.40;93.20
2463;DHT22;1243;54.298;10.172;2024-01-15T01:15:34;2.40;94.80
2463;DHT22;1243;54.298;10.172;2024-01-15T01:17:59;2.40;95.60
2463;DHT22;1243;54.298;10.172;2024-01-15T01:20:25;2.40;94.80
2463;DHT22;1243;54.298;10.172;2024-01-15T01:22:51;2.40;95.00
2463;DHT22;1243;54.298;10.172;2024-01-15T01:25:16;2.40;94.60
2463;DHT22;1243;54.298;10.172;2024-01-15T01:27:42;2.40;95.30
2463;DHT22;1243;54.298;10.172;2024-01-15T01:30:09;2.40;91.10
2463;DHT22;1243;54.298;10.172;2024-01-15T01:32:34;2.30;75.30
2463;DHT22;1243;54.298;10.172;2024-01-15T01:35:01;2.30;75.30
2463;DHT22;1243;54.298;10.172;2024-01-15T01:37:26;2.40;75.40
2463;DHT22;1243;54.298;10.172;2024-01-15T01:39:52;2.30;63.70
2463;DHT22;1243;54.298;10.172;2024-01-15T01:42:18;2.30;53.30
2463;DHT22;1243;54.298;10.172;2024-01-15T01:44:43;2.30;47.50
2463;DHT22;1243;54.298;10.172;2024-01-15T01:47:09;2.30;29.50
2463;DHT22;1243;54.298;10.172;2024-01-15T01:49:35;2.20;23.90
2463;DHT22;1243;54.298;10.172;2024-01-15T01:52:03;2.20;9.80
2463;DHT22;1243;54.298;10.172;2024-01-15T01:54:32;2.20;1.00
2463;DHT22;1243;54.298;10.172;2024-01-15T01:56:58;2.20;1.00
2463;DHT22;1243;54.298;10.172;2024-01-15T01:59:26;2.20;1.00
2463;DHT22;1243;54.298;10.172;2024-01-15T02:01:54;2.10;1.00
2463;DHT22;1243;54.298;10.172;2024-01-15T02:04:20;2.20;1.00
2463;DHT22;1243;54.298;10.172;2024-01-15T02:06:48;2.10;1.00
2463;DHT22;1243;54.298;10.172;2024-01-15T02:09:14;2.10;1.00
2463;DHT22;1243;54.298;10.172;2024-01-15T02:11:41;2.10;1.00
2463;DHT22;1243;54.298;10.172;2024-01-15T02:14:08;2.10;1.00
2463;DHT22;1243;54.298;10.172;2024-01-15T02:16:34;2.10;1.00
2463;DHT22;1243;54.298;10.172;2024-01-15T02:18:59;2.10;1.00
2463;DHT22;1243;54.298;10.172;2024-01-15T02:21:25;2.00;1.00
2463;DHT22;1243;54.298;10.172;2024-01-15T02:23:56;2.10;1.00
2463;DHT22;1243;54.298;10.172;2024-01-15T02:26:23;2.10;1.00
2463;DHT22;1243;54.298;10.172;2024-01-15T02:28:49;2.10;1.00
2463;DHT22;1243;54.298;10.172;2024-01-15T02:31:16;2.00;1.00
2463;DHT22;1243;54.298;10.172;2024-01-15T02:33:42;2.10;1.00
2463;DHT22;1243;54.298;10.172;2024-01-15T02:36:09;2.10;1.00
2463;DHT22;1243;54.298;10.172;2024-01-15T02:38:35;2.10;1.00
2463;DHT22;1243;54.298;10.172;2024-01-15T02:41:00;2.20;1.00
2463;DHT22;1243;54.298;10.172;2024-01-15T02:43:26;2.20;1.00
2463;DHT22;1243;54.298;10.172;2024-01-15T02:45:52;2.30;1.00
2463;DHT22;1243;54.298;10.172;2024-01-15T02:48:17;2.30;1.00
2463;DHT22;1243;54.298;10.172;2024-01-15T02:50:43;2.20;1.00
2463;DHT22;1243;54.298;10.172;2024-01-15T02:53:09;2.20;1.00
2463;DHT22;1243;54.298;10.172;2024-01-15T02:55:34;2.10;1.00
2463;DHT22;1243;54.298;10.172;2024-01-15T02:58:00;2.10;1.00
2463;DHT22;1243;54.298;10.172;2024-01-15T03:00:25;2.10;1.00
2463;DHT22;1243;54.298;10.172;2024-01-15T03:02:51;2.10;1.00
2463;DHT22;1243;54.298;10.172;2024-01-15T03:05:17;2.10;1.00
2463;DHT22;1243;54.298;10.172;2024-01-15T03:07:43;2.10;1.00
2463;DHT22;1243;54.298;10.172;2024-01-15T03:10:09;2.10;1.00
2463;DHT22;1243;54.298;10.172;2024-01-15T03:12:35;2.10;1.00
2463;DHT22;1243;54.298;10.172;2024-01-15T03:15:01;2.10;1.00
2463;DHT22;1243;54.298;10.172;2024-01-15T03:17:27;2.10;1.00
2463;DHT22;1243;54.298;10.172;2024-01-15T03:19:52;2.10;1.00
2463;DHT22;1243;54.298;10.172;2024-01-15T03:22:18;2.00;1.00
2463;DHT22;1243;54.298;10.172;2024-01-15T03:24:44;1.90;1.00
2463;DHT22;1243;54.298;10.172;2024-01-15T03:27:10;1.90;1.00
2463;DHT22;1243;54.298;10.172;2024-01-15T03:29:36;1.90;1.00
2463;DHT22;1243;54.298;10.172;2024-01-15T03:32:01;1.80;1.00
2463;DHT22;1243;54.298;10.172;2024-01-15T03:34:27;1.70;1.00
2463;DHT22;1243;54.298;10.172;2024-01-15T03:36:53;1.70;1.00
2463;DHT22;1243;54.298;10.172;2024-01-15T03:39:18;1.70;1.00
2463;DHT22;1243;54.298;10.172;2024-01-15T03:41:44;1.70;1.00
2463;DHT22;1243;54.298;10.172;2024-01-15T03:44:10;1.70;1.00
2463;DHT22;1243;54.298;10.172;2024-01-15T03:46:36;1.70;1.00
2463;DHT22;1243;54.298;10.172;2024-01-15T03:49:01;1.70;1.00
2463;DHT22;1243;54.298;10.172;2024-01-15T03:51:27;1.60;1.00
2463;DHT22;1243;54.298;10.172;2024-01-15T03:53:53;1.60;1.00
2463;DHT22;1243;54.298;10.172;2024-01-15T03:56:19;1.70;1.00
2463;DHT22;1243;54.298;10.172;2024-01-15T03:58:44;1.80;1.00
2463;DHT22;1243;54.298;10.172;2024-01-15T04:01:10;1.80;1.00
2463;DHT22;1243;54.298;10.172;2024-01-15T04:03:36;1.70;1.00
2463;DHT22;1243;54.298;10.172;2024-01-15T04:06:06;1.70;1.00
2463;DHT22;1243;54.298;10.172;2024-01-15T04:08:31;1.70;1.00
2463;DHT22;1243;54.298;10.172;2024-01-15T04:10:57;1.70;1.00
2463;DHT22;1243;54.298;10.172;2024-01-15T04:13:23;1.80;1.00
2463;DHT22;1243;54.298;10.172;2024-01-15T04:15:48;1.80;1.00
2463;DHT22;1243;54.298;10.172;2024-01-15T04:18:16;1.80;1.00
2463;DHT22;1243;54.298;10.172;2024-01-15T04:20:42;1.80;1.00
2463;DHT22;1243;54.298;10.172;2024-01-15T04:23:08;1.90;1.00
2463;DHT22;1243;54.298;10.172;2024-01-15T04:25:34;1.90;1.00
2463;DHT22;1243;54.298;10.172;2024-01-15T04:27:59;1.90;1.00
2463;DHT22;1243;54.298;10.172;2024-01-15T04:30:25;2.00;1.00
2463;DHT22;1243;54.298;10.172;2024-01-15T04:32:51;2.10;99.90
2463;DHT22;1243;54.298;10.172;2024-01-15T04:35:16;2.10;99.90
2463;DHT22;1243;54.298;10.172;2024-01-15T04:37:42;2.10;99.90
2463;DHT22;1243;54.298;10.172;2024-01-15T04:40:09;2.10;99.90
2463;DHT22;1243;54.298;10.172;2024-01-15T04:42:35;2.10;99.90
2463;DHT22;1243;54.298;10.172;2024-01-15T04:45:00;2.20;99.90
2463;DHT22;1243;54.298;10.172;2024-01-15T04:47:26;2.20;99.90
2463;DHT22;1243;54.298;10.172;2024-01-15T04:49:52;2.20;99.90
2463;DHT22;1243;54.298;10.172;2024-01-15T04:52:17;2.20;99.90
2463;DHT22;1243;54.298;10.172;2024-01-15T04:54:43;2.20;99.90
2463;DHT22;1243;54.298;10.172;2024-01-15T04:57:09;2.10;99.90
2463;DHT22;1243;54.298;10.172;2024-01-15T04:59:35;2.10;99.90
2463;DHT22;1243;54.298;10.172;2024-01-15T05:02:00;2.10;99.90
2463;DHT22;1243;54.298;10.172;2024-01-15T05:04:26;2.20;99.90
2463;DHT22;1243;54.298;10.172;2024-01-15T05:06:52;2.20;99.90
2463;DHT22;1243;54.298;10.172;2024-01-15T05:09:18;2.20;99.90
2463;DHT22;1243;54.298;10.172;2024-01-15T05:11:44;2.20;99.90
2463;DHT22;1243;54.298;10.172;2024-01-15T05:14:09;2.20;99.90
2463;DHT22;1243;54.298;10.172;2024-01-15T05:16:37;2.20;99.90
2463;DHT22;1243;54.298;10.172;2024-01-15T05:19:03;2.20;99.90
2463;DHT22;1243;54.298;10.172;2024-01-15T05:21:29;2.20;99.90
2463;DHT22;1243;54.298;10.172;2024-01-15T05:23:55;2.20;99.90
2463;DHT22;1243;54.298;10.172;2024-01-15T05:26:20;2.20;99.90
2463;DHT22;1243;54.298;10.172;2024-01-15T05:28:46;2.20;99.90
2463;DHT22;1243;54.298;10.172;2024-01-15T05:31:12;2.20;99.90
2463;DHT22;1243;54.298;10.172;2024-01-15T05:33:37;2.20;99.90
2463;DHT22;1243;54.298;10.172;2024-01-15T05:36:03;2.20;99.90
2463;DHT22;1243;54.298;10.172;2024-01-15T05:38:29;2.20;99.90
2463;DHT22;1243;54.298;10.172;2024-01-15T05:40:55;2.20;99.90
2463;DHT22;1243;54.298;10.172;2024-01-15T05:43:20;2.10;99.90
2463;DHT22;1243;54.298;10.172;2024-01-15T05:45:46;2.00;99.90
2463;DHT22;1243;54.298;10.172;2024-01-15T05:48:12;1.90;99.90
2463;DHT22;1243;54.298;10.172;2024-01-15T05:50:38;1.90;99.90
2463;DHT22;1243;54.298;10.172;2024-01-15T05:53:04;2.00;99.90
2463;DHT22;1243;54.298;10.172;2024-01-15T05:55:29;2.00;99.90
2463;DHT22;1243;54.298;10.172;2024-01-15T05:57:55;2.00;99.90
2463;DHT22;1243;54.298;10.172;2024-01-15T06:00:21;2.10;99.90
2463;DHT22;1243;54.298;10.172;2024-01-15T06:02:47;2.10;99.90
2463;DHT22;1243;54.298;10.172;2024-01-15T06:05:12;2.00;99.90
2463;DHT22;1243;54.298;10.172;2024-01-15T06:07:38;2.00;99.90
2463;DHT22;1243;54.298;10.172;2024-01-15T06:10:04;2.10;99.90
2463;DHT22;1243;54.298;10.172;2024-01-15T06:12:30;2.10;99.90
2463;DHT22;1243;54.298;10.172;2024-01-15T06:14:56;2.10;99.90
2463;DHT22;1243;54.298;10.172;2024-01-15T06:17:22;2.10;99.90
2463;DHT22;1243;54.298;10.172;2024-01-15T06:19:48;2.10;99.90
2463;DHT22;1243;54.298;10.172;2024-01-15T06:22:13;2.10;99.90
2463;DHT22;1243;54.298;10.172;2024-01-15T06:24:39;1.90;99.90
2463;DHT22;1243;54.298;10.172;2024-01-15T06:27:05;1.80;99.90
2463;DHT22;1243;54.298;10.172;2024-01-15T06:29:31;1.80;99.90
2463;DHT22;1243;54.298;10.172;2024-01-15T06:31:57;1.90;99.90
2463;DHT22;1243;54.298;10.172;2024-01-15T06:34:23;1.90;99.90
2463;DHT22;1243;54.298;10.172;2024-01-15T06:36:48;1.90;99.90
2463;DHT22;1243;54.298;10.172;2024-01-15T06:39:14;1.90;99.90
2463;DHT22;1243;54.298;10.172;2024-01-15T06:41:40;1.90;99.90
2463;DHT22;1243;54.298;10.172;2024-01-15T06:44:12;2.00;99.90
2463;DHT22;1243;54.298;10.172;2024-01-15T06:46:44;1.90;99.90
2463;DHT22;1243;54.298;10.172;2024-01-15T06:49:10;1.90;99.90
2463;DHT22;1243;54.298;10.172;2024-01-15T06:51:36;1.90;99.90
2463;DHT22;1243;54.298;10.172;2024-01-15T06:54:02;1.90;99.90
2463;DHT22;1243;54.298;10.172;2024-01-15T06:56:28;1.90;99.90
2463;DHT22;1243;54.298;10.172;2024-01-15T06:58:54;1.90;99.90
2463;DHT22;1243;54.298;10.172;2024-01-15T07:01:19;1.90;99.90
2463;DHT22;1243;54.298;10.172;2024-01-15T07:03:45;1.80;99.90
2463;DHT22;1243;54.298;10.172;2024-01-15T07:06:11;1.80;99.90
2463;DHT22;1243;54.298;10.172;2024-01-15T07:08:37;1.70;99.90
2463;DHT22;1243;54.298;10.172;2024-01-15T07:11:04;1.70;99.90
2463;DHT22;1243;54.298;10.172;2024-01-15T07:13:30;1.80;99.90
2463;DHT22;1243;54.298;10.172;2024-01-15T07:15:56;1.80;99.90
2463;DHT22;1243;54.298;10.172;2024-01-15T07:18:21;1.90;99.90
2463;DHT22;1243;54.298;10.172;2024-01-15T07:20:47;1.80;99.90
2463;DHT22;1243;54.298;10.172;2024-01-15T07:23:13;1.80;99.90
2463;DHT22;1243;54.298;10.172;2024-01-15T07:25:38;1.90;99.90
2463;DHT22;1243;54.298;10.172;2024-01-15T07:28:04;1.90;99.90
2463;DHT22;1243;54.298;10.172;2024-01-15T07:30:30;2.00;99.90
2463;DHT22;1243;54.298;10.172;2024-01-15T07:32:56;2.00;99.90
2463;DHT22;1243;54.298;10.172;2024-01-15T07:35:22;2.00;99.90
2463;DHT22;1243;54.298;10.172;2024-01-15T07:37:47;2.00;99.90
2463;DHT22;1243;54.298;10.172;2024-01-15T07:40:13;2.10;99.90
2463;DHT22;1243;54.298;10.172;2024-01-15T07:42:39;2.00;99.90
2463;DHT22;1243;54.298;10.172;2024-01-15T07:45:05;2.00;99.90
2463;DHT22;1243;54.298;10.172;2024-01-15T07:47:31;1.90;99.90
2463;DHT22;1243;54.298;10.172;2024-01-15T07:49:57;1.90;99.90
2463;DHT22;1243;54.298;10.172;2024-01-15T07:52:23;1.80;99.90
2463;DHT22;1243;54.298;10.172;2024-01-15T07:54:48;1.80;99.90
2463;DHT22;1243;54.298;10.172;2024-01-15T07:57:14;1.80;99.90
2463;DHT22;1243;54.298;10.172;2024-01-15T07:59:40;1.80;99.90
2463;DHT22;1243;54.298;10.172;2024-01-15T08:02:05;1.70;99.90
2463;DHT22;1243;54.298;10.172;2024-01-15T08:04:31;1.50;99.90
2463;DHT22;1243;54.298;10.172;2024-01-15T08:06:57;1.50;99.90
2463;DHT22;1243;54.298;10.172;2024-01-15T08:09:23;1.50;99.90
2463;DHT22;1243;54.298;10.172;2024-01-15T08:11:49;1.50;99.90
2463;DHT22;1243;54.298;10.172;2024-01-15T08:14:15;1.40;99.90
2463;DHT22;1243;54.298;10.172;2024-01-15T08:16:41;1.40;99.90
2463;DHT22;1243;54.298;10.172;2024-01-15T08:19:06;1.40;99.90
2463;DHT22;1243;54.298;10.172;2024-01-15T08:21:32;1.40;99.90
2463;DHT22;1243;54.298;10.172;2024-01-15T08:23:59;1.40;99.90
2463;DHT22;1243;54.298;10.172;2024-01-15T08:26:25;1.40;99.90
2463;DHT22;1243;54.298;10.172;2024-01-15T08:28:51;1.30;99.90
2463;DHT22;1243;54.298;10.172;2024-01-15T08:31:17;1.30;99.90
2463;DHT22;1243;54.298;10.172;2024-01-15T08:33:43;1.30;99.90
2463;DHT22;1243;54.298;10.172;2024-01-15T08:36:12;1.40;99.90
2463;DHT22;1243;54.298;10.172;2024-01-15T08:38:38;1.30;99.90
2463;DHT22;1243;54.298;10.172;2024-01-15T08:41:04;1.40;99.90
2463;DHT22;1243;54.298;10.172;2024-01-15T08:43:30;1.40;99.90
2463;DHT22;1243;54.298;10.172;2024-01-15T08:45:59;1.30;99.90
2463;DHT22;1243;54.298;10.172;2024-01-15T08:48:24;1.40;99.90
2463;DHT22;1243;54.298;10.172;2024-01-15T08:50:53;1.40;99.90
2463;DHT22;1243;54.298;10.172;2024-01-15T08:53:19;1.40;99.90
2463;DHT22;1243;54.298;10.172;2024-01-15T08:55:44;1.50;99.90
2463;DHT22;1243;54.298;10.172;2024-01-15T08:58:11;1.50;99.90
2463;DHT22;1243;54.298;10.172;2024-01-15T09:00:36;1.50;99.90
2463;DHT22;1243;54.298;10.172;2024-01-15T09:03:02;1.40;99.90
2463;DHT22;1243;54.298;10.172;2024-01-15T09:05:28;1.40;99.90
2463;DHT22;1243;54.298;10.172;2024-01-15T09:07:54;1.30;99.90
2463;DHT22;1243;54.298;10.172;2024-01-15T09:10:20;1.20;99.90
2463;DHT22;1243;54.298;10.172;2024-01-15T09:12:46;1.10;98.40
2463;DHT22;1243;54.298;10.172;2024-01-15T09:15:12;1.10;95.10
2463;DHT22;1243;54.298;10.172;2024-01-15T09:17:38;1.10;88.60
2463;DHT22;1243;54.298;10.172;2024-01-15T09:20:04;1.10;88.60
2463;DHT22;1243;54.298;10.172;2024-01-15T09:22:31;1.00;88.50
2463;DHT22;1243;54.298;10.172;2024-01-15T09:24:57;1.00;88.60
2463;DHT22;1243;54.298;10.172;2024-01-15T09:27:22;1.00;88.50
2463;DHT22;1243;54.298;10.172;2024-01-15T09:29:48;1.00;88.60
2463;DHT22;1243;54.298;10.172;2024-01-15T09:32:14;1.00;88.50
2463;DHT22;1243;54.298;10.172;2024-01-15T09:34:41;1.00;88.60
2463;DHT22;1243;54.298;10.172;2024-01-15T09:37:07;1.00;88.60
2463;DHT22;1243;54.298;10.172;2024-01-15T09:39:32;1.00;88.50
2463;DHT22;1243;54.298;10.172;2024-01-15T09:41:58;1.00;88.60
2463;DHT22;1243;54.298;10.172;2024-01-15T09:44:25;1.00;88.50
2463;DHT22;1243;54.298;10.172;2024-01-15T09:46:52;1.10;88.60
2463;DHT22;1243;54.298;10.172;2024-01-15T09:49:18;1.00;88.60
2463;DHT22;1243;54.298;10.172;2024-01-15T09:51:44;1.10;88.60
2463;DHT22;1243;54.298;10.172;2024-01-15T09:54:10;1.20;88.80
2463;DHT22;1243;54.298;10.172;2024-01-15T09:56:39;1.20;88.70
2463;DHT22;1243;54.298;10.172;2024-01-15T09:59:05;1.30;88.80
2463;DHT22;1243;54.298;10.172;2024-01-15T10:01:32;1.30;88.80
2463;DHT22;1243;54.298;10.172;2024-01-15T10:03:58;1.20;79.90
2463;DHT22;1243;54.298;10.172;2024-01-15T10:06:27;1.20;79.00
2463;DHT22;1243;54.298;10.172;2024-01-15T10:08:57;1.10;75.30
2463;DHT22;1243;54.298;10.172;2024-01-15T10:11:25;1.10;75.80
2463;DHT22;1243;54.298;10.172;2024-01-15T10:13:52;1.10;80.60
2463;DHT22;1243;54.298;10.172;2024-01-15T10:16:21;1.10;72.00
2463;DHT22;1243;54.298;10.172;2024-01-15T10:18:48;1.10;68.20
2463;DHT22;1243;54.298;10.172;2024-01-15T10:21:14;1.10;61.70
2463;DHT22;1243;54.298;10.172;2024-01-15T10:23:40;1.10;63.20
2463;DHT22;1243;54.298;10.172;2024-01-15T10:26:06;1.20;61.90
2463;DHT22;1243;54.298;10.172;2024-01-15T10:28:31;1.20;58.30
2463;DHT22;1243;54.298;10.172;2024-01-15T10:30:58;1.30;51.80
2463;DHT22;1243;54.298;10.172;2024-01-15T10:33:25;1.30;51.90
2463;DHT22;1243;54.298;10.172;2024-01-15T10:35:54;1.40;48.40
2463;DHT22;1243;54.298;10.172;2024-01-15T10:38:21;1.40;42.90
2463;DHT22;1243;54.298;10.172;2024-01-15T10:40:50;1.40;39.00
2463;DHT22;1243;54.298;10.172;2024-01-15T10:43:16;1.40;34.20
2463;DHT22;1243;54.298;10.172;2024-01-15T10:45:50;1.40;26.20
2463;DHT22;1243;54.298;10.172;2024-01-15T10:48:18;1.40;27.10
2463;DHT22;1243;54.298;10.172;2024-01-15T10:50:45;1.50;26.00
2463;DHT22;1243;54.298;10.172;2024-01-15T10:53:13;1.50;25.50
2463;DHT22;1243;54.298;10.172;2024-01-15T10:55:42;1.50;25.20
2463;DHT22;1243;54.298;10.172;2024-01-15T10:58:09;1.50;22.50
2463;DHT22;1243;54.298;10.172;2024-01-15T11:00:36;1.60;20.70
2463;DHT22;1243;54.298;10.172;2024-01-15T11:03:06;1.60;16.00
2463;DHT22;1243;54.298;10.172;2024-01-15T11:05:44;1.60;17.20
2463;DHT22;1243;54.298;10.172;2024-01-15T11:08:10;1.70;12.80
2463;DHT22;1243;54.298;10.172;2024-01-15T11:10:46;1.70;13.30
2463;DHT22;1243;54.298;10.172;2024-01-15T11:16:10;1.70;1.00
2463;DHT22;1243;54.298;10.172;2024-01-15T11:18:42;1.70;1.00
2463;DHT22;1243;54.298;10.172;2024-01-15T11:23:46;1.70;1.00
2463;DHT22;1243;54.298;10.172;2024-01-15T11:28:55;1.60;1.00
2463;DHT22;1243;54.298;10.172;2024-01-15T11:31:29;1.50;1.00
2463;DHT22;1243;54.298;10.172;2024-01-15T11:33:55;1.50;1.00
2463;DHT22;1243;54.298;10.172;2024-01-15T11:41:58;1.30;1.00
2463;DHT22;1243;54.298;10.172;2024-01-15T11:44:24;1.30;1.00
2463;DHT22;1243;54.298;10.172;2024-01-15T11:46:59;1.40;1.00
2463;DHT22;1243;54.298;10.172;2024-01-15T11:50:02;1.50;1.00
2463;DHT22;1243;54.298;10.172;2024-01-15T11:52:38;1.50;1.00
2463;DHT22;1243;54.298;10.172;2024-01-15T11:55:35;1.50;1.00
2463;DHT22;1243;54.298;10.172;2024-01-15T11:58:08;1.50;1.00
2463;DHT22;1243;54.298;10.172;2024-01-15T12:00:48;1.50;1.00
2463;DHT22;1243;54.298;10.172;2024-01-15T12:03:15;1.60;1.00
2463;DHT22;1243;54.298;10.172;2024-01-15T12:05:41;1.60;1.00
2463;DHT22;1243;54.298;10.172;2024-01-15T12:08:07;1.60;1.00
2463;DHT22;1243;54.298;10.172;2024-01-15T12:10:39;1.70;1.00
2463;DHT22;1243;54.298;10.172;2024-01-15T12:13:13;1.70;1.00
2463;DHT22;1243;54.298;10.172;2024-01-15T12:15:40;1.80;1.00
2463;DHT22;1243;54.298;10.172;2024-01-15T12:18:11;1.70;1.00
2463;DHT22;1243;54.298;10.172;2024-01-15T12:20:37;1.60;1.00
2463;DHT22;1243;54.298;10.172;2024-01-15T12:23:03;1.70;1.00
2463;DHT22;1243;54.298;10.172;2024-01-15T12:25:30;1.70;1.00
2463;DHT22;1243;54.298;10.172;2024-01-15T12:27:56;1.60;1.00
2463;DHT22;1243;54.298;10.172;2024-01-15T12:30:22;1.60;1.00
2463;DHT22;1243;54.298;10.172;2024-01-15T12:32:48;1.60;1.00
2463;DHT22;1243;54.298;10.172;2024-01-15T12:35:14;1.60;1.00
2463;DHT22;1243;54.298;10.172;2024-01-15T12:37:43;1.60;1.00
2463;DHT22;1243;54.298;10.172;2024-01-15T12:40:12;1.60;1.00
2463;DHT22;1243;54.298;10.172;2024-01-15T12:42:39;1.60;1.00
2463;DHT22;1243;54.298;10.172;2024-01-15T12:45:06;1.70;1.00
2463;DHT22;1243;54.298;10.172;2024-01-15T12:47:32;1.70;1.00
2463;DHT22;1243;54.298;10.172;2024-01-15T12:49:58;1.70;1.00
2463;DHT22;1243;54.298;10.172;2024-01-15T12:52:27;1.70;1.00
2463;DHT22;1243;54.298;10.172;2024-01-15T12:54:53;1.60;1.00
2463;DHT22;1243;54.298;10.172;2024-01-15T12:57:19;1.70;1.00
2463;DHT22;1243;54.298;10.172;2024-01-15T12:59:45;1.90;1.00
2463;DHT22;1243;54.298;10.172;2024-01-15T13:02:14;1.90;1.00
2463;DHT22;1243;54.298;10.172;2024-01-15T13:04:40;2.00;1.00
2463;DHT22;1243;54.298;10.172;2024-01-15T13:07:09;2.00;1.00
2463;DHT22;1243;54.298;10.172;2024-01-15T13:09:35;2.00;1.00
2463;DHT22;1243;54.298;10.172;2024-01-15T13:12:02;1.90;1.00
2463;DHT22;1243;54.298;10.172;2024-01-15T13:14:28;1.90;1.00
2463;DHT22;1243;54.298;10.172;2024-01-15T13:16:54;1.80;1.00
2463;DHT22;1243;54.298;10.172;2024-01-15T13:19:20;1.70;1.00
2463;DHT22;1243;54.298;10.172;2024-01-15T13:21:49;1.60;1.00
2463;DHT22;1243;54.298;10.172;2024-01-15T13:24:19;1.70;1.00
2463;DHT22;1243;54.298;10.172;2024-01-15T13:26:44;1.70;1.00
2463;DHT22;1243;54.298;10.172;2024-01-15T13:29:11;1.70;1.00
2463;DHT22;1243;54.298;10.172;2024-01-15T13:31:36;1.70;1.00
2463;DHT22;1243;54.298;10.172;2024-01-15T13:34:03;1.80;1.00
2463;DHT22;1243;54.298;10.172;2024-01-15T13:36:29;1.80;1.00
2463;DHT22;1243;54.298;10.172;2024-01-15T13:38:55;1.90;1.00
2463;DHT22;1243;54.298;10.172;2024-01-15T13:41:21;1.80;1.00
2463;DHT22;1243;54.298;10.172;2024-01-15T13:43:51;1.90;1.00
2463;DHT22;1243;54.298;10.172;2024-01-15T13:46:19;2.00;1.00
2463;DHT22;1243;54.298;10.172;2024-01-15T13:48:45;2.00;1.00
2463;DHT22;1243;54.298;10.172;2024-01-15T13:51:11;2.10;1.00
2463;DHT22;1243;54.298;10.172;2024-01-15T13:53:38;2.20;1.00
2463;DHT22;1243;54.298;10.172;2024-01-15T13:56:04;2.10;1.00
2463;DHT22;1243;54.298;10.172;2024-01-15T13:58:31;2.20;1.00
2463;DHT22;1243;54.298;10.172;2024-01-15T14:00:56;2.20;1.00
2463;DHT22;1243;54.298;10.172;2024-01-15T14:03:22;2.10;1.00
2463;DHT22;1243;54.298;10.172;2024-01-15T14:05:48;2.00;1.00
2463;DHT22;1243;54.298;10.172;2024-01-15T14:08:14;1.90;1.00
2463;DHT22;1243;54.298;10.172;2024-01-15T14:10:40;1.90;1.00
2463;DHT22;1243;54.298;10.172;2024-01-15T14:13:06;1.90;1.00
2463;DHT22;1243;54.298;10.172;2024-01-15T14:15:31;1.80;1.00
2463;DHT22;1243;54.298;10.172;2024-01-15T14:17:57;1.70;1.00
2463;DHT22;1243;54.298;10.172;2024-01-15T14:20:23;1.70;1.00
2463;DHT22;1243;54.298;10.172;2024-01-15T14:22:49;1.60;1.00
2463;DHT22;1243;54.298;10.172;2024-01-15T14:25:15;1.60;1.00
2463;DHT22;1243;54.298;10.172;2024-01-15T14:27:40;1.50;1.00
2463;DHT22;1243;54.298;10.172;2024-01-15T14:30:06;1.60;1.00
2463;DHT22;1243;54.298;10.172;2024-01-15T14:32:34;1.50;1.00
2463;DHT22;1243;54.298;10.172;2024-01-15T14:34:59;1.40;1.00
2463;DHT22;1243;54.298;10.172;2024-01-15T14:37:25;1.50;1.00
2463;DHT22;1243;54.298;10.172;2024-01-15T14:39:51;1.50;1.00
2463;DHT22;1243;54.298;10.172;2024-01-15T14:42:17;1.50;1.00
2463;DHT22;1243;54.298;10.172;2024-01-15T14:44:43;1.60;1.00
2463;DHT22;1243;54.298;10.172;2024-01-15T14:47:09;1.60;1.00
2463;DHT22;1243;54.298;10.172;2024-01-15T14:49:34;1.50;1.00
2463;DHT22;1243;54.298;10.172;2024-01-15T14:52:01;1.40;1.00
2463;DHT22;1243;54.298;10.172;2024-01-15T14:54:28;1.20;1.00
2463;DHT22;1243;54.298;10.172;2024-01-15T14:56:53;1.10;1.00
2463;DHT22;1243;54.298;10.172;2024-01-15T14:59:19;1.10;1.00
2463;DHT22;1243;54.298;10.172;2024-01-15T15:01:45;1.00;1.00
2463;DHT22;1243;54.298;10.172;2024-01-15T15:04:11;0.90;1.00
2463;DHT22;1243;54.298;10.172;2024-01-15T15:06:37;0.70;1.00
2463;DHT22;1243;54.298;10.172;2024-01-15T15:09:03;0.70;1.00
2463;DHT22;1243;54.298;10.172;2024-01-15T15:11:35;0.70;1.00
2463;DHT22;1243;54.298;10.172;2024-01-15T15:14:01;0.70;1.00
2463;DHT22;1243;54.298;10.172;2024-01-15T15:16:27;0.70;1.00
2463;DHT22;1243;54.298;10.172;2024-01-15T15:18:55;0.80;1.00
2463;DHT22;1243;54.298;10.172;2024-01-15T15:21:21;0.80;1.00
2463;DHT22;1243;54.298;10.172;2024-01-15T15:23:47;0.80;1.00
2463;DHT22;1243;54.298;10.172;2024-01-15T15:26:13;0.70;1.00
2463;DHT22;1243;54.298;10.172;2024-01-15T15:28:39;0.70;1.00
2463;DHT22;1243;54.298;10.172;2024-01-15T15:31:05;0.70;1.00
2463;DHT22;1243;54.298;10.172;2024-01-15T15:33:36;0.70;1.00
2463;DHT22;1243;54.298;10.172;2024-01-15T15:36:02;0.60;1.00
2463;DHT22;1243;54.298;10.172;2024-01-15T15:38:31;0.60;1.00
2463;DHT22;1243;54.298;10.172;2024-01-15T15:40:58;0.50;1.00
2463;DHT22;1243;54.298;10.172;2024-01-15T15:43:25;0.50;1.00
2463;DHT22;1243;54.298;10.172;2024-01-15T15:45:51;0.40;1.00
2463;DHT22;1243;54.298;10.172;2024-01-15T15:48:17;0.40;1.00
2463;DHT22;1243;54.298;10.172;2024-01-15T15:50:42;0.40;1.00
2463;DHT22;1243;54.298;10.172;2024-01-15T15:53:08;0.40;1.00
2463;DHT22;1243;54.298;10.172;2024-01-15T15:55:34;0.40;1.00
2463;DHT22;1243;54.298;10.172;2024-01-15T15:58:03;0.40;1.00
2463;DHT22;1243;54.298;10.172;2024-01-15T16:00:29;0.40;1.00
2463;DHT22;1243;54.298;10.172;2024-01-15T16:02:55;0.30;1.00
2463;DHT22;1243;54.298;10.172;2024-01-15T16:05:21;0.30;1.00
2463;DHT22;1243;54.298;10.172;2024-01-15T16:07:47;0.20;1.00
2463;DHT22;1243;54.298;10.172;2024-01-15T16:10:13;0.30;1.00
2463;DHT22;1243;54.298;10.172;2024-01-15T16:12:40;0.20;1.00
2463;DHT22;1243;54.298;10.172;2024-01-15T16:15:26;0.20;1.00
2463;DHT22;1243;54.298;10.172;2024-01-15T16:17:53;0.20;1.00